Time;durP1;ratioP1;P1;durP2;ratioP2;P2;SDS_P1;SDS_P2;PMS_P1;PMS_P2;Temp;Humidity;BMP_temperature;BMP_pressure;BME280_temperature;BME280_humidity;BME280_pressure;Samples;Min_cycle;Max_cycle;Signal;HPM_P1;HPM_P2
2022/12/07 00:00:52;;;;;;;2.60;1.07;;;5.00;99.90;;;;;;5096177;28;21109;-59
2022/12/07 00:03:19;;;;;;;1.97;1.03;;;5.00;99.90;;;;;;5098133;28;20471;-59
2022/12/07 00:05:47;;;;;;;2.30;1.00;;;5.00;99.90;;;;;;5097524;28;20449;-59
2022/12/07 00:08:14;;;;;;;1.80;0.90;;;5.10;99.90;;;;;;5096116;28;20523;-60
2022/12/07 00:10:41;;;;;;;1.70;1.00;;;5.10;99.90;;;;;;5095647;28;20480;-60
2022/12/07 00:13:08;;;;;;;1.70;1.00;;;5.20;99.90;;;;;;5098891;28;20484;-60
2022/12/07 00:15:36;;;;;;;1.40;0.90;;;5.20;99.90;;;;;;5099327;28;20429;-59
2022/12/07 00:18:03;;;;;;;2.43;0.90;;;5.20;99.90;;;;;;5096729;28;20547;-59
2022/12/07 00:20:30;;;;;;;2.73;1.00;;;4.90;99.90;;;;;;5098227;28;20492;-60
2022/12/07 00:22:59;;;;;;;2.70;1.10;;;4.90;99.90;;;;;;5098429;28;20485;-59
2022/12/07 00:25:26;;;;;;;2.30;0.90;;;5.10;99.90;;;;;;5095602;28;20535;-60
2022/12/07 00:27:53;;;;;;;1.63;0.90;;;5.10;99.90;;;;;;5098225;28;21003;-60
2022/12/07 00:30:20;;;;;;;2.93;1.00;;;5.10;99.90;;;;;;5098824;28;20444;-60
2022/12/07 00:32:47;;;;;;;2.23;1.10;;;5.00;99.90;;;;;;5098018;28;20524;-60
2022/12/07 00:35:14;;;;;;;2.60;1.10;;;5.00;99.90;;;;;;5093299;28;20501;-63
2022/12/07 00:37:41;;;;;;;2.63;1.10;;;5.20;99.90;;;;;;5096473;28;20476;-59
2022/12/07 00:40:10;;;;;;;2.40;1.00;;;5.20;99.90;;;;;;5097946;28;20446;-59
2022/12/07 00:42:37;;;;;;;1.97;1.13;;;5.10;99.90;;;;;;5096631;28;20481;-60
2022/12/07 00:45:05;;;;;;;3.20;1.67;;;5.20;99.90;;;;;;5098405;28;20488;-59
2022/12/07 00:47:31;;;;;;;1.97;1.00;;;5.30;99.90;;;;;;5099033;28;20572;-59
2022/12/07 00:49:59;;;;;;;3.03;1.03;;;5.30;99.90;;;;;;5098266;28;20540;-60
2022/12/07 00:52:26;;;;;;;3.30;1.00;;;5.10;99.90;;;;;;5098293;28;20457;-60
2022/12/07 00:54:53;;;;;;;2.63;1.30;;;5.20;99.90;;;;;;5096816;28;20827;-61
2022/12/07 00:57:22;;;;;;;4.90;1.93;;;5.20;99.90;;;;;;5098626;28;20481;-60
2022/12/07 00:59:49;;;;;;;4.30;1.40;;;5.20;99.90;;;;;;5096748;28;20908;-60
2022/12/07 01:02:16;;;;;;;2.67;0.90;;;5.30;99.90;;;;;;5098035;28;20499;-60
2022/12/07 01:04:43;;;;;;;2.63;1.30;;;5.30;99.90;;;;;;5097255;28;20984;-60
2022/12/07 01:07:10;;;;;;;3.10;1.60;;;5.00;99.90;;;;;;5097490;28;20540;-59
2022/12/07 01:09:37;;;;;;;2.50;1.07;;;4.70;99.90;;;;;;5093484;28;20465;-59
2022/12/07 01:12:04;;;;;;;2.20;0.90;;;4.60;99.90;;;;;;5098124;28;20789;-60
2022/12/07 01:14:32;;;;;;;3.70;1.50;;;4.70;99.90;;;;;;5097427;28;20481;-60
2022/12/07 01:16:59;;;;;;;4.30;1.30;;;4.70;99.90;;;;;;5097390;28;20499;-59
2022/12/07 01:19:26;;;;;;;2.10;1.10;;;4.80;99.90;;;;;;5095832;28;20523;-59
2022/12/07 01:21:53;;;;;;;3.53;1.00;;;4.80;99.90;;;;;;5097920;28;20481;-59
2022/12/07 01:24:20;;;;;;;3.70;1.27;;;4.70;99.90;;;;;;5095251;28;20497;-59
2022/12/07 01:26:49;;;;;;;3.83;1.17;;;4.80;99.90;;;;;;5097043;28;20517;-59
2022/12/07 01:29:16;;;;;;;2.40;1.17;;;5.00;99.90;;;;;;5096480;28;20511;-60
2022/12/07 01:31:44;;;;;;;2.47;1.77;;;5.20;99.90;;;;;;5097522;28;20475;-60
2022/12/07 01:34:11;;;;;;;2.83;1.53;;;5.20;99.90;;;;;;5095090;28;20489;-59
2022/12/07 01:36:38;;;;;;;2.60;1.40;;;5.10;99.90;;;;;;5094936;28;20461;-60
2022/12/07 01:39:07;;;;;;;3.67;1.27;;;4.90;99.90;;;;;;5096908;28;20864;-60
2022/12/07 01:41:38;;;;;;;2.10;1.20;;;4.80;99.90;;;;;;5096649;28;20528;-60
2022/12/07 01:44:15;;;;;;;3.30;1.47;;;5.00;99.90;;;;;;5095901;28;20469;-60
2022/12/07 01:46:44;;;;;;;2.93;1.30;;;5.10;99.90;;;;;;5093468;28;20853;-60
2022/12/07 01:49:15;;;;;;;2.73;1.10;;;5.20;99.90;;;;;;5096299;28;20881;-60
2022/12/07 01:51:44;;;;;;;6.40;1.60;;;5.40;99.90;;;;;;5095746;28;20541;-60
2022/12/07 01:54:13;;;;;;;3.40;1.30;;;5.30;99.90;;;;;;5096106;28;20453;-60
2022/12/07 01:56:42;;;;;;;2.27;1.17;;;5.10;99.90;;;;;;5092542;28;20482;-60
2022/12/07 01:59:09;;;;;;;2.93;1.37;;;5.00;99.90;;;;;;5096242;28;20904;-60
2022/12/07 02:01:36;;;;;;;4.40;1.17;;;4.80;99.90;;;;;;5096342;28;20532;-60
2022/12/07 02:04:06;;;;;;;3.97;1.20;;;4.80;99.90;;;;;;5096321;28;20568;-60
2022/12/07 02:06:34;;;;;;;2.50;1.37;;;4.80;99.90;;;;;;5095924;28;20516;-60
2022/12/07 02:09:01;;;;;;;2.67;1.07;;;4.70;99.90;;;;;;5097075;28;20496;-60
2022/12/07 02:11:28;;;;;;;2.60;1.00;;;4.70;99.90;;;;;;5095100;28;20560;-60
2022/12/07 02:13:55;;;;;;;1.87;1.10;;;4.80;99.90;;;;;;5097333;28;20495;-60
2022/12/07 02:16:34;;;;;;;2.33;1.10;;;4.80;99.90;;;;;;5097069;28;20481;-60
2022/12/07 02:19:20;;;;;;;3.20;1.40;;;4.90;99.90;;;;;;5089629;28;20917;-60
2022/12/07 02:21:52;;;;;;;1.97;1.10;;;4.80;99.90;;;;;;5096976;28;20911;-60
2022/12/07 02:24:45;;;;;;;2.30;1.50;;;4.70;99.90;;;;;;5096917;28;20946;-60
2022/12/07 02:27:34;;;;;;;2.67;1.10;;;4.60;99.90;;;;;;5090702;28;20509;-60
2022/12/07 02:30:05;;;;;;;2.70;1.10;;;4.80;99.90;;;;;;5096892;28;20781;-60
2022/12/07 02:32:44;;;;;;;2.83;1.67;;;4.80;99.90;;;;;;5097025;28;20540;-60
2022/12/07 02:35:16;;;;;;;2.33;1.20;;;4.70;99.90;;;;;;5093933;28;20924;-60
2022/12/07 02:37:52;;;;;;;5.17;1.83;;;4.50;99.90;;;;;;5096158;28;20881;-60
2022/12/07 02:40:22;;;;;;;2.07;0.90;;;4.50;99.90;;;;;;5096822;28;20450;-60
2022/12/07 02:42:56;;;;;;;2.87;1.23;;;4.50;99.90;;;;;;5093797;28;20841;-60
2022/12/07 02:45:28;;;;;;;3.23;1.50;;;4.50;99.90;;;;;;5095987;28;20480;-60
2022/12/07 02:47:59;;;;;;;2.43;1.23;;;4.50;99.90;;;;;;5096369;28;20554;-59
2022/12/07 02:50:27;;;;;;;4.13;1.30;;;4.40;99.90;;;;;;5096519;28;20441;-60
2022/12/07 02:52:54;;;;;;;3.23;1.03;;;4.40;99.90;;;;;;5092658;28;20596;-60
2022/12/07 02:55:26;;;;;;;2.43;0.90;;;4.40;99.90;;;;;;5096465;28;20476;-60
2022/12/07 02:58:21;;;;;;;4.17;1.43;;;4.50;99.90;;;;;;5096392;28;20492;-60
2022/12/07 03:01:00;;;;;;;2.83;1.13;;;4.90;99.90;;;;;;5094868;28;20485;-60
2022/12/07 03:03:28;;;;;;;3.80;1.00;;;5.00;99.90;;;;;;5095157;28;20476;-60
2022/12/07 03:06:09;;;;;;;3.30;1.10;;;5.00;99.90;;;;;;5094843;28;20481;-60
2022/12/07 03:08:44;;;;;;;1.70;1.10;;;4.80;99.90;;;;;;5094506;28;20558;-60
2022/12/07 03:11:15;;;;;;;2.70;0.97;;;4.70;99.90;;;;;;5091706;28;20457;-60
2022/12/07 03:13:46;;;;;;;4.80;1.00;;;4.60;99.90;;;;;;5094785;28;20965;-60
2022/12/07 03:16:17;;;;;;;2.33;0.90;;;4.60;99.90;;;;;;5094963;28;20485;-60
2022/12/07 03:18:49;;;;;;;2.40;1.27;;;4.60;99.90;;;;;;5094784;28;20523;-60
2022/12/07 03:21:20;;;;;;;3.20;1.10;;;4.50;99.90;;;;;;5085702;28;20537;-59
2022/12/07 03:23:51;;;;;;;4.23;1.23;;;4.50;99.90;;;;;;5096287;28;20506;-60
2022/12/07 03:26:20;;;;;;;3.60;1.10;;;4.80;99.90;;;;;;5096085;28;20470;-60
2022/12/07 03:28:53;;;;;;;2.53;1.13;;;4.70;99.90;;;;;;5095220;28;20520;-59
2022/12/07 03:31:25;;;;;;;1.80;0.90;;;4.60;99.90;;;;;;5093189;28;20540;-59
2022/12/07 03:33:59;;;;;;;3.20;1.30;;;4.50;99.90;;;;;;5096286;28;20485;-60
2022/12/07 03:36:31;;;;;;;2.73;1.10;;;4.50;99.90;;;;;;5095521;28;20461;-60
2022/12/07 03:39:04;;;;;;;2.83;1.17;;;4.50;99.90;;;;;;5097996;28;20489;-60
2022/12/07 03:41:36;;;;;;;2.60;1.13;;;4.50;99.90;;;;;;5095182;28;20452;-60
2022/12/07 03:44:03;;;;;;;4.33;1.20;;;4.50;99.90;;;;;;5095572;28;20464;-60
2022/12/07 03:46:39;;;;;;;2.00;1.00;;;4.50;99.90;;;;;;5095319;28;20469;-60
2022/12/07 03:49:12;;;;;;;3.10;0.90;;;4.50;99.90;;;;;;5091299;28;20534;-60
2022/12/07 03:51:46;;;;;;;2.37;1.07;;;4.40;99.90;;;;;;5094330;28;20438;-60
2022/12/07 03:54:20;;;;;;;2.50;0.90;;;4.40;99.90;;;;;;5095366;28;20481;-60
2022/12/07 03:56:48;;;;;;;1.93;0.70;;;4.40;99.90;;;;;;5094376;28;20520;-60
2022/12/07 03:59:16;;;;;;;1.77;0.70;;;4.40;99.90;;;;;;5096035;28;20481;-61
2022/12/07 04:01:46;;;;;;;1.90;0.87;;;4.40;99.90;;;;;;5092855;28;20485;-60
2022/12/07 04:04:12;;;;;;;3.03;1.03;;;4.40;99.90;;;;;;5095317;28;20595;-60
2022/12/07 04:06:39;;;;;;;2.80;0.90;;;4.60;99.90;;;;;;5094099;28;20459;-61
2022/12/07 04:09:06;;;;;;;1.70;0.97;;;4.60;99.90;;;;;;5094534;28;20572;-61
2022/12/07 04:11:33;;;;;;;1.80;0.80;;;4.60;99.90;;;;;;5096453;28;20449;-59
2022/12/07 04:16:46;;;;;;;2.03;0.80;;;4.80;99.90;;;;;;5094923;28;20508;-60
2022/12/07 04:19:13;;;;;;;2.33;0.90;;;4.70;99.90;;;;;;5099086;28;20545;-60
2022/12/07 04:21:40;;;;;;;1.50;0.80;;;4.90;99.90;;;;;;5098315;28;20445;-59
2022/12/07 04:24:07;;;;;;;1.57;0.70;;;4.80;99.90;;;;;;5098842;28;20492;-60
2022/12/07 04:26:35;;;;;;;2.53;0.70;;;4.80;99.90;;;;;;5098373;28;20481;-60
2022/12/07 04:29:02;;;;;;;1.33;0.60;;;4.90;99.90;;;;;;5098852;28;20520;-59
2022/12/07 04:31:28;;;;;;;1.30;0.70;;;4.90;99.90;;;;;;5097978;28;20853;-59
2022/12/07 04:33:57;;;;;;;2.90;0.80;;;4.90;99.90;;;;;;5098843;28;20457;-59
2022/12/07 04:36:24;;;;;;;1.30;0.67;;;4.90;99.90;;;;;;5098342;28;20453;-59
2022/12/07 04:38:51;;;;;;;0.80;0.40;;;4.90;99.90;;;;;;5098246;28;20803;-59
2022/12/07 04:41:18;;;;;;;0.93;0.50;;;5.00;99.90;;;;;;5098617;28;20449;-59
2022/12/07 04:43:44;;;;;;;1.10;0.60;;;5.10;99.90;;;;;;5098951;28;20809;-60
2022/12/07 04:46:12;;;;;;;1.57;0.60;;;5.00;99.90;;;;;;5097504;28;20449;-60
2022/12/07 04:48:38;;;;;;;1.00;0.67;;;5.00;99.90;;;;;;5096701;28;20939;-60
2022/12/07 04:51:07;;;;;;;2.60;0.60;;;5.00;99.90;;;;;;5096579;28;21077;-61
2022/12/07 04:53:34;;;;;;;1.67;0.80;;;4.80;99.90;;;;;;5096968;28;20445;-61
2022/12/07 04:56:01;;;;;;;3.20;0.80;;;4.60;99.90;;;;;;5096072;28;20442;-60
2022/12/07 04:58:28;;;;;;;2.00;0.90;;;4.40;99.90;;;;;;5096859;28;20544;-60
2022/12/07 05:00:56;;;;;;;1.43;0.70;;;4.40;99.90;;;;;;5097102;28;20495;-60
2022/12/07 05:03:23;;;;;;;1.10;0.67;;;4.40;99.90;;;;;;5097399;28;20544;-60
2022/12/07 05:05:50;;;;;;;1.03;0.80;;;4.50;99.90;;;;;;5097090;28;20486;-60
2022/12/07 05:08:18;;;;;;;1.13;0.60;;;4.50;99.90;;;;;;5097220;28;20491;-60
2022/12/07 05:10:45;;;;;;;1.10;0.70;;;4.40;99.90;;;;;;5097304;28;20948;-60
2022/12/07 05:13:12;;;;;;;2.07;0.70;;;4.40;99.90;;;;;;5096797;28;20480;-60
2022/12/07 05:15:39;;;;;;;1.20;0.60;;;4.40;99.90;;;;;;5097556;28;20485;-60
2022/12/07 05:18:06;;;;;;;2.13;0.60;;;4.30;99.90;;;;;;5097967;28;20473;-60
2022/12/07 05:20:33;;;;;;;4.93;0.60;;;4.30;99.90;;;;;;5097528;28;20485;-58
2022/12/07 05:23:00;;;;;;;1.13;0.70;;;4.40;99.90;;;;;;5096342;28;20800;-59
2022/12/07 05:25:28;;;;;;;2.90;0.80;;;4.40;99.90;;;;;;5096560;28;20556;-60
2022/12/07 05:27:56;;;;;;;1.67;0.70;;;4.30;99.90;;;;;;5097682;28;20518;-60
2022/12/07 05:30:23;;;;;;;1.37;0.50;;;4.40;99.90;;;;;;5097573;28;20497;-60
2022/12/07 05:32:50;;;;;;;3.20;0.67;;;4.40;99.90;;;;;;5097328;28;20532;-60
2022/12/07 05:35:17;;;;;;;3.03;0.77;;;4.40;99.90;;;;;;5096902;28;20489;-60
2022/12/07 05:37:44;;;;;;;1.40;0.60;;;4.40;99.90;;;;;;5097047;28;20888;-59
2022/12/07 05:40:13;;;;;;;1.47;0.80;;;4.30;99.90;;;;;;5096262;28;20488;-60
2022/12/07 05:42:42;;;;;;;1.10;0.60;;;4.30;99.90;;;;;;5096223;28;20532;-60
2022/12/07 05:45:10;;;;;;;1.40;0.80;;;4.40;99.90;;;;;;5096442;28;20527;-59
2022/12/07 05:47:37;;;;;;;1.27;0.70;;;4.30;99.90;;;;;;5096435;28;21015;-59
2022/12/07 05:50:06;;;;;;;1.10;0.70;;;4.30;99.90;;;;;;5093477;28;20469;-60
2022/12/07 05:52:33;;;;;;;1.90;0.80;;;4.30;99.90;;;;;;5092365;28;20489;-60
2022/12/07 05:55:00;;;;;;;1.50;0.70;;;4.40;99.90;;;;;;5096070;28;20494;-59
2022/12/07 05:57:27;;;;;;;1.93;0.80;;;4.30;99.90;;;;;;5096692;28;21055;-59
2022/12/07 05:59:54;;;;;;;1.87;0.97;;;4.30;99.90;;;;;;5095400;28;21235;-59
2022/12/07 06:02:21;;;;;;;2.37;0.80;;;4.30;99.90;;;;;;5096871;28;20814;-59
2022/12/07 06:04:48;;;;;;;1.43;0.80;;;4.30;99.90;;;;;;5094856;28;20533;-60
2022/12/07 06:07:17;;;;;;;2.13;0.90;;;4.20;99.90;;;;;;5095133;28;20424;-59
2022/12/07 06:09:44;;;;;;;2.27;0.80;;;4.30;99.90;;;;;;5093912;28;20453;-61
2022/12/07 06:15:13;;;;;;;2.20;0.73;;;4.40;99.90;;;;;;5051068;28;20948;-59
2022/12/07 06:17:40;;;;;;;1.80;0.90;;;4.30;99.90;;;;;;5053547;28;20442;-60
2022/12/07 06:20:08;;;;;;;1.10;0.70;;;4.20;99.90;;;;;;5071599;28;20959;-59
2022/12/07 06:22:35;;;;;;;1.60;0.80;;;4.10;99.90;;;;;;5093165;28;20515;-59
2022/12/07 06:25:03;;;;;;;1.80;0.80;;;4.00;99.90;;;;;;5094121;28;20908;-59
2022/12/07 06:27:32;;;;;;;1.47;0.70;;;3.90;99.90;;;;;;5092305;28;20877;-60
2022/12/07 06:29:59;;;;;;;1.10;0.77;;;4.00;99.90;;;;;;5092556;28;20464;-59
2022/12/07 06:32:28;;;;;;;4.00;0.90;;;4.00;99.90;;;;;;5094332;28;20550;-59
2022/12/07 06:34:54;;;;;;;3.13;0.90;;;4.10;99.90;;;;;;5092134;28;20461;-59
2022/12/07 06:37:21;;;;;;;1.90;0.77;;;4.00;99.90;;;;;;5095457;28;20481;-59
2022/12/07 06:39:48;;;;;;;2.60;1.17;;;3.90;99.90;;;;;;5099378;28;20787;-60
2022/12/07 06:42:15;;;;;;;1.40;0.87;;;3.90;99.90;;;;;;5112840;28;20455;-60
2022/12/07 06:44:42;;;;;;;1.60;0.97;;;3.90;99.90;;;;;;5112853;28;20545;-60
2022/12/07 06:47:09;;;;;;;1.50;1.00;;;3.90;99.90;;;;;;5114612;28;20473;-60
2022/12/07 06:49:37;;;;;;;1.90;0.77;;;3.90;99.90;;;;;;5112252;28;20546;-59
2022/12/07 06:52:05;;;;;;;1.70;0.90;;;3.90;99.90;;;;;;5101977;28;20908;-59
2022/12/07 06:54:32;;;;;;;2.03;0.70;;;3.90;99.90;;;;;;5111643;28;20786;-59
2022/12/07 06:56:59;;;;;;;2.73;0.90;;;3.80;99.90;;;;;;5113917;28;20479;-59
2022/12/07 06:59:26;;;;;;;1.73;0.83;;;3.70;99.90;;;;;;5111123;28;20893;-59
2022/12/07 07:01:53;;;;;;;1.20;0.80;;;3.60;99.90;;;;;;5114217;28;20473;-59
2022/12/07 07:04:20;;;;;;;1.13;0.77;;;3.60;99.90;;;;;;5104577;28;20934;-59
2022/12/07 07:06:48;;;;;;;1.90;0.80;;;3.50;99.90;;;;;;5094198;28;20444;-60
2022/12/07 07:09:15;;;;;;;4.03;0.83;;;3.40;99.90;;;;;;5091677;28;20927;-59
2022/12/07 07:11:42;;;;;;;1.90;0.83;;;3.40;99.90;;;;;;5091773;28;20912;-59
2022/12/07 07:14:09;;;;;;;1.30;0.87;;;3.40;99.90;;;;;;5092468;28;20518;-59
2022/12/07 07:16:36;;;;;;;2.27;0.80;;;3.50;99.90;;;;;;5093368;28;20443;-59
2022/12/07 07:19:03;;;;;;;1.57;0.53;;;3.50;99.90;;;;;;5093302;28;20500;-58
2022/12/07 07:21:30;;;;;;;1.70;0.70;;;3.50;99.90;;;;;;5097346;28;20424;-59
2022/12/07 07:23:58;;;;;;;1.60;0.87;;;3.60;99.90;;;;;;5092297;28;20424;-59
2022/12/07 07:26:25;;;;;;;1.33;0.70;;;3.60;99.90;;;;;;5091659;28;20491;-60
2022/12/07 07:28:52;;;;;;;1.10;0.70;;;3.80;99.90;;;;;;5092184;28;20509;-60
2022/12/07 07:31:19;;;;;;;1.37;0.80;;;3.70;99.90;;;;;;5091853;28;20457;-59
2022/12/07 07:33:47;;;;;;;1.63;0.80;;;3.80;99.90;;;;;;5091070;28;20446;-60
2022/12/07 07:36:13;;;;;;;1.87;0.70;;;3.80;99.90;;;;;;5092617;28;21049;-60
2022/12/07 07:38:48;;;;;;;1.27;0.60;;;3.80;99.90;;;;;;5093196;28;20873;-60
2022/12/07 07:41:17;;;;;;;2.53;0.90;;;3.70;99.90;;;;;;5091784;28;20455;-60
2022/12/07 07:43:43;;;;;;;1.37;0.63;;;3.70;99.90;;;;;;5072566;28;20421;-60
2022/12/07 07:46:10;;;;;;;1.27;0.80;;;3.70;99.90;;;;;;5085831;28;20527;-60
2022/12/07 07:48:37;;;;;;;1.30;0.80;;;3.70;99.90;;;;;;5095818;28;20497;-60
2022/12/07 07:51:06;;;;;;;2.77;0.80;;;3.70;99.90;;;;;;5097665;28;20511;-60
2022/12/07 07:53:33;;;;;;;2.00;0.80;;;3.70;99.90;;;;;;5096979;28;20426;-61
2022/12/07 07:56:00;;;;;;;1.73;0.90;;;3.70;99.90;;;;;;5094845;28;20420;-60
2022/12/07 07:58:29;;;;;;;1.70;0.87;;;3.70;99.90;;;;;;5095410;28;20508;-60
2022/12/07 08:00:56;;;;;;;1.70;0.80;;;3.70;99.90;;;;;;5095445;28;20457;-60
2022/12/07 08:03:23;;;;;;;1.40;0.67;;;3.80;99.90;;;;;;5095255;28;20555;-59
2022/12/07 08:05:50;;;;;;;1.40;0.70;;;4.00;99.90;;;;;;5096316;28;20477;-60
2022/12/07 08:08:16;;;;;;;1.90;0.80;;;4.40;99.90;;;;;;5094718;28;20864;-60
2022/12/07 08:10:43;;;;;;;1.40;0.70;;;4.40;99.90;;;;;;5095084;28;20474;-59
2022/12/07 08:13:13;;;;;;;0.80;0.50;;;4.30;99.90;;;;;;5093781;28;20532;-60
2022/12/07 08:15:43;;;;;;;2.13;0.60;;;4.30;99.90;;;;;;5093318;28;20912;-60
2022/12/07 08:18:10;;;;;;;1.03;0.60;;;4.50;99.90;;;;;;5088749;28;20469;-60
2022/12/07 08:20:38;;;;;;;2.53;0.73;;;4.50;99.90;;;;;;5091417;28;21136;-60
2022/12/07 08:23:06;;;;;;;1.30;0.60;;;4.90;99.90;;;;;;5079626;28;20975;-60
2022/12/07 08:25:34;;;;;;;6.93;0.60;;;5.20;99.90;;;;;;5089975;28;21086;-60
2022/12/07 08:28:02;;;;;;;0.80;0.57;;;5.20;99.90;;;;;;5094069;28;20521;-60
2022/12/07 08:30:29;;;;;;;1.07;0.57;;;5.00;99.90;;;;;;5095107;28;20537;-61
2022/12/07 08:32:58;;;;;;;1.33;0.50;;;5.00;99.90;;;;;;5096211;28;20569;-61
2022/12/07 08:35:25;;;;;;;1.77;0.70;;;5.00;99.90;;;;;;5095843;28;20481;-64
2022/12/07 08:37:52;;;;;;;0.83;0.50;;;5.10;99.90;;;;;;5096674;28;20457;-59
2022/12/07 08:40:20;;;;;;;1.40;0.60;;;5.60;99.90;;;;;;5097005;28;20503;-59
2022/12/07 08:42:50;;;;;;;2.70;0.63;;;5.80;99.90;;;;;;5096630;28;20479;-60
2022/12/07 08:45:18;;;;;;;3.30;0.70;;;6.00;99.90;;;;;;5097021;28;21052;-59
2022/12/07 08:47:51;;;;;;;1.57;0.60;;;6.20;99.90;;;;;;5095875;28;20515;-59
2022/12/07 08:50:20;;;;;;;1.57;0.70;;;5.90;99.90;;;;;;5085741;28;20481;-58
2022/12/07 08:52:51;;;;;;;1.87;0.60;;;5.50;99.90;;;;;;5091237;28;20489;-59
2022/12/07 08:55:19;;;;;;;1.20;0.50;;;5.40;99.90;;;;;;5096518;28;20461;-60
2022/12/07 08:57:46;;;;;;;1.27;0.60;;;5.30;99.90;;;;;;5094023;28;20936;-59
2022/12/07 09:00:15;;;;;;;2.70;0.70;;;5.30;99.90;;;;;;5074501;28;20512;-60
2022/12/07 09:02:43;;;;;;;1.30;0.67;;;5.60;99.90;;;;;;5095190;28;21008;-59
2022/12/07 09:05:10;;;;;;;1.80;0.67;;;5.80;99.90;;;;;;5113405;28;20530;-59
2022/12/07 09:07:40;;;;;;;0.90;0.57;;;6.00;99.90;;;;;;5116315;28;20503;-59
2022/12/07 09:10:07;;;;;;;2.93;0.60;;;6.30;99.90;;;;;;5116051;27;20571;-59
2022/12/07 09:12:34;;;;;;;0.80;0.50;;;6.40;99.90;;;;;;5116161;28;20527;-59
2022/12/07 09:15:02;;;;;;;4.07;0.47;;;6.50;99.90;;;;;;5115485;28;20484;-58
2022/12/07 09:17:32;;;;;;;1.00;0.50;;;6.40;99.90;;;;;;5115055;28;20883;-58
2022/12/07 09:20:00;;;;;;;1.10;0.50;;;6.30;99.90;;;;;;5115980;28;20556;-59
2022/12/07 09:22:30;;;;;;;2.47;0.50;;;6.30;99.90;;;;;;5116534;28;20444;-59
2022/12/07 09:24:59;;;;;;;2.00;0.60;;;6.30;99.90;;;;;;5116904;28;20458;-59
2022/12/07 09:27:26;;;;;;;2.20;0.60;;;6.30;99.90;;;;;;5115677;28;20563;-59
2022/12/07 09:29:54;;;;;;;1.00;0.43;;;6.00;99.90;;;;;;5114648;28;20583;-58
2022/12/07 09:32:21;;;;;;;1.20;0.70;;;6.30;99.90;;;;;;5114381;28;20444;-59
2022/12/07 09:34:48;;;;;;;1.40;0.80;;;6.50;99.90;;;;;;5115418;28;20510;-60
2022/12/07 09:37:15;;;;;;;1.73;0.60;;;6.30;99.90;;;;;;5115778;28;20472;-59
2022/12/07 09:39:43;;;;;;;1.63;0.60;;;6.40;99.90;;;;;;5113526;28;20489;-60
2022/12/07 09:42:26;;;;;;;1.20;0.67;;;6.40;99.90;;;;;;5112712;28;20472;-60
2022/12/07 09:44:53;;;;;;;1.30;0.60;;;6.70;99.90;;;;;;5112280;28;20554;-58
2022/12/07 09:47:20;;;;;;;1.20;0.60;;;6.70;99.90;;;;;;5096372;28;20548;-58
2022/12/07 09:49:47;;;;;;;0.90;0.50;;;6.20;99.90;;;;;;5092349;28;20572;-59
2022/12/07 09:52:25;;;;;;;1.20;0.70;;;5.90;99.90;;;;;;5092293;28;20532;-59
2022/12/07 09:54:53;;;;;;;1.37;0.63;;;5.70;99.90;;;;;;5091538;28;20481;-59
2022/12/07 09:57:34;;;;;;;1.43;0.63;;;5.80;99.90;;;;;;5092882;28;20452;-59
2022/12/07 10:00:03;;;;;;;1.10;0.50;;;6.00;99.90;;;;;;5094157;28;20459;-59
2022/12/07 10:02:39;;;;;;;1.13;0.50;;;6.10;99.90;;;;;;5094142;28;20732;-59
2022/12/07 10:05:07;;;;;;;0.80;0.50;;;6.00;99.90;;;;;;5093341;28;20492;-59
2022/12/07 10:07:34;;;;;;;1.43;0.60;;;6.00;99.90;;;;;;5094340;28;20569;-59
2022/12/07 10:10:05;;;;;;;1.00;0.50;;;6.00;99.90;;;;;;5094628;28;20593;-59
2022/12/07 10:12:54;;;;;;;0.80;0.50;;;6.10;99.90;;;;;;5095196;28;20496;-59
2022/12/07 10:15:21;;;;;;;1.10;0.47;;;6.20;99.90;;;;;;5094849;28;20939;-59
2022/12/07 10:17:50;;;;;;;0.80;0.40;;;6.30;99.90;;;;;;5095117;28;20452;-59
2022/12/07 10:20:24;;;;;;;1.30;0.50;;;6.10;99.90;;;;;;5094143;28;20457;-59
2022/12/07 10:22:56;;;;;;;1.00;0.50;;;6.20;99.90;;;;;;5094581;28;20809;-60
2022/12/07 10:25:26;;;;;;;0.90;0.43;;;6.30;99.90;;;;;;5095067;28;20454;-59
2022/12/07 10:28:13;;;;;;;1.60;0.50;;;6.40;99.90;;;;;;5092526;28;20449;-60
2022/12/07 10:31:01;;;;;;;0.97;0.50;;;6.50;99.90;;;;;;5092020;28;20875;-60
2022/12/07 10:33:31;;;;;;;1.80;0.53;;;6.60;99.90;;;;;;5090963;28;20541;-59
2022/12/07 10:36:00;;;;;;;0.60;0.40;;;6.50;99.90;;;;;;5092178;28;20465;-60
2022/12/07 10:38:30;;;;;;;0.80;0.50;;;6.50;99.90;;;;;;5092237;28;20457;-59
2022/12/07 10:41:05;;;;;;;0.80;0.40;;;6.30;99.90;;;;;;5090157;28;20548;-59
2022/12/07 10:43:35;;;;;;;1.87;0.50;;;6.20;99.90;;;;;;5093520;28;20933;-59
2022/12/07 10:46:38;;;;;;;1.00;0.50;;;6.20;99.90;;;;;;5092454;28;20483;-58
2022/12/07 10:49:20;;;;;;;1.77;0.40;;;6.10;99.90;;;;;;5092847;28;20572;-58
2022/12/07 10:51:56;;;;;;;0.93;0.50;;;6.10;99.90;;;;;;5094176;28;20499;-59
2022/12/07 10:54:31;;;;;;;1.80;0.70;;;6.20;99.90;;;;;;5093664;28;20453;-59
2022/12/07 10:57:17;;;;;;;1.07;0.53;;;6.30;99.90;;;;;;5092988;28;20477;-59
2022/12/07 11:00:03;;;;;;;0.70;0.40;;;6.30;99.90;;;;;;5089994;28;20487;-60
2022/12/07 11:02:55;;;;;;;0.90;0.50;;;6.20;99.90;;;;;;5091799;28;20470;-59
2022/12/07 11:05:28;;;;;;;0.83;0.30;;;6.30;99.90;;;;;;5092303;28;20525;-57
2022/12/07 11:08:04;;;;;;;1.03;0.50;;;6.50;99.90;;;;;;5091361;28;20469;-59
2022/12/07 11:10:41;;;;;;;0.93;0.60;;;6.70;99.90;;;;;;5092106;28;20513;-59
2022/12/07 11:13:25;;;;;;;0.70;0.50;;;6.60;99.90;;;;;;5090008;28;20445;-59
2022/12/07 11:16:04;;;;;;;2.60;0.47;;;6.70;99.90;;;;;;5092102;28;20453;-59
2022/12/07 11:18:40;;;;;;;1.03;0.50;;;6.90;99.90;;;;;;5091193;28;20469;-59
2022/12/07 11:21:14;;;;;;;0.80;0.43;;;6.60;99.90;;;;;;5093532;28;20441;-59
2022/12/07 11:23:50;;;;;;;0.90;0.43;;;6.50;99.90;;;;;;5093867;28;20961;-60
2022/12/07 11:26:35;;;;;;;0.80;0.50;;;6.60;99.90;;;;;;5094796;28;20459;-61
2022/12/07 11:29:17;;;;;;;2.00;0.60;;;6.60;99.90;;;;;;5094013;28;20540;-60
2022/12/07 11:31:58;;;;;;;1.83;0.40;;;6.80;99.90;;;;;;5094921;28;20445;-58
2022/12/07 11:34:37;;;;;;;0.60;0.33;;;6.80;99.90;;;;;;5096090;28;20605;-59
2022/12/07 11:37:09;;;;;;;2.40;0.50;;;6.70;99.90;;;;;;5096241;28;20477;-60
2022/12/07 11:39:42;;;;;;;0.90;0.40;;;6.60;99.90;;;;;;5096413;28;20522;-56
2022/12/07 11:42:15;;;;;;;0.80;0.40;;;6.70;99.90;;;;;;5096345;28;20475;-58
2022/12/07 11:44:53;;;;;;;0.70;0.40;;;6.60;99.90;;;;;;5097017;28;20473;-58
2022/12/07 11:47:29;;;;;;;0.80;0.40;;;6.60;99.90;;;;;;5097797;28;20445;-58
2022/12/07 11:50:04;;;;;;;0.53;0.40;;;6.70;99.90;;;;;;5097491;28;20516;-58
2022/12/07 11:52:40;;;;;;;0.50;0.30;;;7.10;99.90;;;;;;5097813;28;20891;-58
2022/12/07 11:55:20;;;;;;;0.60;0.30;;;7.10;99.90;;;;;;5096508;28;20899;-58
2022/12/07 11:57:52;;;;;;;0.63;0.23;;;7.20;99.90;;;;;;5097470;28;20441;-58
2022/12/07 12:00:20;;;;;;;1.23;0.40;;;7.00;99.90;;;;;;5095135;28;20813;-63
2022/12/07 12:02:54;;;;;;;0.53;0.27;;;6.70;99.90;;;;;;5094421;28;20733;-58
2022/12/07 12:05:24;;;;;;;0.80;0.40;;;6.50;99.90;;;;;;5092176;28;20480;-58
2022/12/07 12:07:56;;;;;;;0.70;0.50;;;6.60;99.90;;;;;;5094410;28;20441;-58
2022/12/07 12:10:33;;;;;;;0.60;0.40;;;6.70;99.90;;;;;;5096330;28;21031;-58
2022/12/07 12:13:20;;;;;;;1.00;0.40;;;7.00;99.90;;;;;;5108628;28;20464;-58
2022/12/07 12:16:02;;;;;;;0.83;0.60;;;7.30;99.90;;;;;;5116122;27;20484;-59
2022/12/07 12:19:00;;;;;;;0.70;0.40;;;7.60;99.90;;;;;;5128033;27;20539;-59
2022/12/07 12:21:29;;;;;;;1.40;0.60;;;7.60;99.90;;;;;;5117228;27;20556;-58
2022/12/07 12:23:59;;;;;;;0.90;0.60;;;7.50;99.90;;;;;;5116959;27;20455;-59
2022/12/07 12:26:29;;;;;;;1.13;0.60;;;7.30;99.90;;;;;;5118086;27;20552;-59
2022/12/07 12:29:00;;;;;;;1.20;0.80;;;7.40;99.90;;;;;;5114530;27;20594;-59
2022/12/07 12:31:39;;;;;;;1.30;0.70;;;7.30;99.90;;;;;;5117303;27;20472;-59
2022/12/07 12:34:40;;;;;;;1.50;0.60;;;7.40;99.90;;;;;;5112975;28;20500;-58
2022/12/07 12:37:44;;;;;;;1.80;0.77;;;7.30;99.90;;;;;;5112514;28;20460;-59
2022/12/07 12:40:40;;;;;;;1.90;0.70;;;7.40;99.90;;;;;;5114204;27;20831;-59
2022/12/07 12:43:45;;;;;;;1.93;0.80;;;7.00;99.90;;;;;;5092687;28;20484;-58
2022/12/07 12:46:49;;;;;;;1.90;0.90;;;7.20;99.90;;;;;;5092039;28;20967;-59
2022/12/07 12:49:44;;;;;;;1.67;0.50;;;7.50;99.90;;;;;;5094214;28;20437;-59
2022/12/07 12:52:48;;;;;;;1.30;0.80;;;7.70;99.90;;;;;;5093576;28;20462;-59
2022/12/07 12:55:21;;;;;;;0.83;0.57;;;7.80;99.90;;;;;;5119132;27;20440;-59
2022/12/07 12:58:09;;;;;;;0.90;0.50;;;7.30;99.90;;;;;;5118096;27;20536;-59
2022/12/07 13:00:36;;;;;;;0.80;0.60;;;7.30;99.90;;;;;;5115354;27;20536;-59
2022/12/07 13:03:03;;;;;;;2.13;0.67;;;7.30;99.90;;;;;;5114881;27;20472;-59
2022/12/07 13:05:32;;;;;;;1.50;0.80;;;6.80;99.90;;;;;;5096344;27;20855;-59
2022/12/07 13:08:02;;;;;;;1.00;0.70;;;6.90;99.90;;;;;;5095512;28;20529;-59
2022/12/07 13:10:40;;;;;;;1.10;0.70;;;7.00;99.90;;;;;;5108995;28;20862;-59
2022/12/07 13:13:31;;;;;;;0.87;0.53;;;6.80;99.90;;;;;;5111440;28;20827;-59
2022/12/07 13:16:31;;;;;;;0.80;0.50;;;6.80;99.90;;;;;;5108440;28;20505;-59
2022/12/07 13:18:58;;;;;;;1.40;0.70;;;7.30;99.90;;;;;;5112831;27;20441;-59
2022/12/07 13:21:45;;;;;;;1.00;0.50;;;7.50;99.90;;;;;;5115971;27;20477;-59
2022/12/07 13:24:13;;;;;;;1.10;0.60;;;7.40;99.90;;;;;;5107526;27;20441;-59